Time,TemperatureF,DewpointF,PressureIn,WindDirection,WindDirectionDegrees,WindSpeedMPH,WindSpeedGustMPH,Humidity,HourlyPrecipIn,Conditions,Clouds,dailyrainin,SoftwareType,DateUTC
2013-02-16 00:02:00,22.0,18.0,30.18,West,259,0.0,0.0,84,0.00,,,0.01,,2013-02-16 05:02:00,
2013-02-16 00:12:00,22.0,18.0,30.18,West,259,0.0,0.0,84,0.00,,,0.01,,2013-02-16 05:12:00,
2013-02-16 00:22:00,22.0,18.0,30.18,West,259,0.0,0.0,84,0.00,,,0.01,,2013-02-16 05:22:00,
2013-02-16 00:32:00,22.0,18.0,30.18,West,259,1.0,2.0,84,0.00,,,0.01,,2013-02-16 05:32:00,
2013-02-16 00:42:00,22.0,18.0,30.18,West,259,1.0,2.0,84,0.00,,,0.01,,2013-02-16 05:42:00,
2013-02-16 00:52:00,22.0,18.0,30.18,West,259,1.0,2.0,84,0.00,,,0.01,,2013-02-16 05:52:00,
2013-02-16 01:02:00,22.0,18.0,30.18,West,259,1.0,2.0,84,0.00,,,0.01,,2013-02-16 06:02:00,
2013-02-16 01:11:00,22.0,18.0,30.18,West,259,1.0,2.0,84,0.00,,,0.01,,2013-02-16 06:11:00,
2013-02-16 01:22:00,22.0,18.0,30.17,West,259,1.0,2.0,83,0.00,,,0.01,,2013-02-16 06:22:00,
2013-02-16 01:32:00,22.0,18.0,30.17,West,259,1.0,2.0,84,0.00,,,0.01,,2013-02-16 06:32:00,
2013-02-16 01:42:00,22.0,18.0,30.17,West,259,1.0,2.0,84,0.00,,,0.01,,2013-02-16 06:42:00,
2013-02-16 01:52:00,22.0,18.0,30.17,West,259,0.0,1.0,83,0.00,,,0.01,,2013-02-16 06:52:00,
2013-02-16 02:02:00,21.0,17.0,30.16,West,259,1.0,2.0,84,0.00,,,0.01,,2013-02-16 07:02:00,
2013-02-16 02:11:00,21.0,17.0,30.16,West,259,1.0,2.0,84,0.00,,,0.01,,2013-02-16 07:11:00,
2013-02-16 02:21:00,21.0,17.0,30.16,West,259,1.0,2.0,85,0.00,,,0.01,,2013-02-16 07:21:00,
2013-02-16 02:32:00,21.0,17.0,30.15,WSW,258,0.0,0.0,85,0.00,,,0.01,,2013-02-16 07:32:00,
2013-02-16 02:42:00,21.0,17.0,30.15,WSW,258,0.0,0.0,85,0.00,,,0.01,,2013-02-16 07:42:00,
2013-02-16 02:52:00,22.0,18.0,30.16,West,259,1.0,2.0,86,0.00,,,0.01,,2013-02-16 07:52:00,
2013-02-16 03:01:00,22.0,19.0,30.15,West,259,0.0,1.0,87,0.00,,,0.01,,2013-02-16 08:01:00,
2013-02-16 03:11:00,22.0,19.0,30.15,West,259,0.0,1.0,87,0.00,,,0.01,,2013-02-16 08:11:00,
2013-02-16 03:21:00,22.0,19.0,30.14,West,259,0.0,0.0,87,0.00,,,0.01,,2013-02-16 08:21:00,
2013-02-16 03:32:00,23.0,19.0,30.14,South,173,1.0,4.0,85,0.00,,,0.01,,2013-02-16 08:32:00,
2013-02-16 03:42:00,23.0,19.0,30.14,South,173,1.0,4.0,85,0.00,,,0.01,,2013-02-16 08:42:00,
2013-02-16 03:52:00,23.0,19.0,30.14,South,173,1.0,4.0,85,0.00,,,0.01,,2013-02-16 08:52:00,
2013-02-16 04:02:00,23.0,19.0,30.13,South,173,2.0,3.0,84,0.00,,,0.01,,2013-02-16 09:02:00,
2013-02-16 04:11:00,23.0,19.0,30.13,South,173,2.0,3.0,84,0.00,,,0.01,,2013-02-16 09:11:00,
2013-02-16 04:21:00,23.0,19.0,30.13,South,173,2.0,3.0,84,0.00,,,0.01,,2013-02-16 09:21:00,
2013-02-16 04:32:00,23.0,19.0,30.12,South,173,0.0,0.0,84,0.00,,,0.01,,2013-02-16 09:32:00,
2013-02-16 04:42:00,23.0,19.0,30.12,South,173,0.0,0.0,84,0.00,,,0.01,,2013-02-16 09:42:00,
2013-02-16 04:52:00,23.0,19.0,30.12,South,174,0.0,0.0,84,0.00,,,0.01,,2013-02-16 09:52:00,
2013-02-16 05:01:00,22.0,18.0,30.12,South,173,0.0,0.0,85,0.00,,,0.01,,2013-02-16 10:01:00,
2013-02-16 05:11:00,22.0,18.0,30.12,South,173,0.0,0.0,85,0.00,,,0.01,,2013-02-16 10:11:00,
2013-02-16 05:21:00,22.0,18.0,30.11,South,173,0.0,0.0,85,0.00,,,0.01,,2013-02-16 10:21:00,
2013-02-16 05:32:00,22.0,18.0,30.11,South,173,0.0,0.0,86,0.00,,,0.01,,2013-02-16 10:32:00,
2013-02-16 05:42:00,22.0,18.0,30.11,South,173,0.0,0.0,86,0.00,,,0.01,,2013-02-16 10:42:00,
2013-02-16 05:52:00,22.0,18.0,30.11,South,173,0.0,0.0,86,0.00,,,0.01,,2013-02-16 10:52:00,
2013-02-16 06:02:00,21.0,17.0,30.11,South,173,0.0,1.0,86,0.00,,,0.01,,2013-02-16 11:02:00,
2013-02-16 06:11:00,21.0,17.0,30.11,South,173,0.0,1.0,86,0.00,,,0.01,,2013-02-16 11:11:00,
2013-02-16 06:22:00,21.0,18.0,30.11,South,173,0.0,0.0,87,0.00,,,0.01,,2013-02-16 11:22:00,
2013-02-16 06:32:00,21.0,18.0,30.10,South,174,0.0,2.0,88,0.00,,,0.01,,2013-02-16 11:32:00,
2013-02-16 06:42:00,21.0,18.0,30.10,South,174,0.0,2.0,88,0.00,,,0.01,,2013-02-16 11:42:00,
2013-02-16 06:52:00,21.0,18.0,30.10,South,173,0.0,0.0,87,0.00,,,0.01,,2013-02-16 11:52:00,
2013-02-16 07:02:00,19.0,16.0,30.09,South,173,0.0,0.0,87,0.00,,,0.01,,2013-02-16 12:02:00,
2013-02-16 07:12:00,19.0,16.0,30.09,South,173,0.0,0.0,87,0.00,,,0.01,,2013-02-16 12:12:00,
2013-02-16 07:22:00,19.0,16.0,30.09,South,173,0.0,0.0,87,0.00,,,0.01,,2013-02-16 12:22:00,
2013-02-16 07:32:00,18.0,15.0,30.09,South,173,0.0,0.0,87,0.00,,,0.01,,2013-02-16 12:32:00,
2013-02-16 07:42:00,18.0,15.0,30.09,South,173,0.0,0.0,87,0.00,,,0.01,,2013-02-16 12:42:00,
2013-02-16 07:52:00,18.0,15.0,30.09,South,173,0.0,0.0,87,0.00,,,0.01,,2013-02-16 12:52:00,
2013-02-16 08:02:00,19.0,16.0,30.09,South,173,0.0,0.0,89,0.00,,,0.01,,2013-02-16 13:02:00,
2013-02-16 08:12:00,19.0,16.0,30.09,South,173,0.0,0.0,89,0.00,,,0.01,,2013-02-16 13:12:00,
2013-02-16 08:22:00,19.0,16.0,30.09,South,173,0.0,0.0,89,0.00,,,0.01,,2013-02-16 13:22:00,
2013-02-16 08:32:00,21.0,19.0,30.10,South,174,0.0,0.0,90,0.00,,,0.01,,2013-02-16 13:32:00,
2013-02-16 08:41:00,21.0,19.0,30.10,South,174,0.0,0.0,90,0.00,,,0.01,,2013-02-16 13:41:00,
2013-02-16 08:52:00,21.0,19.0,30.10,South,174,0.0,0.0,90,0.00,,,0.01,,2013-02-16 13:52:00,
2013-02-16 09:01:00,24.0,21.0,30.10,SW,216,4.0,7.0,87,0.00,,,0.01,,2013-02-16 14:01:00,
2013-02-16 09:11:00,24.0,21.0,30.10,SW,216,4.0,7.0,87,0.00,,,0.01,,2013-02-16 14:11:00,
2013-02-16 09:21:00,25.0,22.0,30.10,SW,214,4.0,7.0,87,0.00,,,0.01,,2013-02-16 14:21:00,
2013-02-16 09:32:00,25.0,21.0,30.10,SW,219,3.0,9.0,86,0.00,,,0.01,,2013-02-16 14:32:00,
2013-02-16 09:42:00,25.0,21.0,30.10,SW,219,3.0,9.0,86,0.00,,,0.01,,2013-02-16 14:42:00,
2013-02-16 09:52:00,25.0,21.0,30.10,SW,219,3.0,9.0,86,0.00,,,0.01,,2013-02-16 14:52:00,
2013-02-16 10:02:00,27.0,23.0,30.09,West,269,3.0,7.0,84,0.00,,,0.01,,2013-02-16 15:02:00,
2013-02-16 10:11:00,27.0,23.0,30.09,West,269,3.0,7.0,84,0.00,,,0.01,,2013-02-16 15:11:00,
2013-02-16 10:22:00,27.0,23.0,30.09,West,263,1.0,6.0,84,0.00,,,0.01,,2013-02-16 15:22:00,
2013-02-16 10:32:00,29.0,24.0,30.09,West,261,7.0,12.0,82,0.00,,,0.01,,2013-02-16 15:32:00,
2013-02-16 10:52:00,28.0,22.0,30.09,West,263,4.0,9.0,77,0.00,,,0.01,,2013-02-16 15:52:00,
2013-02-16 11:01:00,27.0,21.0,30.09,SW,232,2.0,12.0,78,0.00,,,0.01,,2013-02-16 16:01:00,
2013-02-16 11:11:00,27.0,21.0,30.09,SW,232,2.0,12.0,78,0.00,,,0.01,,2013-02-16 16:11:00,
2013-02-16 11:21:00,26.0,21.0,30.10,SW,226,5.0,11.0,82,0.00,,,0.01,,2013-02-16 16:21:00,
2013-02-16 11:32:00,26.0,22.0,30.10,West,271,6.0,11.0,83,0.00,,,0.01,,2013-02-16 16:32:00,
2013-02-16 11:42:00,26.0,22.0,30.10,West,271,6.0,11.0,83,0.00,,,0.01,,2013-02-16 16:42:00,
2013-02-16 11:52:00,26.0,22.0,30.10,West,271,6.0,11.0,83,0.00,,,0.01,,2013-02-16 16:52:00,
2013-02-16 12:01:00,26.0,22.0,30.09,West,264,4.0,10.0,85,0.00,,,0.01,,2013-02-16 17:01:00,
2013-02-16 12:11:00,26.0,22.0,30.09,West,264,4.0,10.0,85,0.00,,,0.01,,2013-02-16 17:11:00,
2013-02-16 12:22:00,27.0,23.0,30.09,West,271,9.0,13.0,83,0.00,,,0.01,,2013-02-16 17:22:00,
2013-02-16 12:32:00,26.0,21.0,30.09,WSW,244,9.0,15.0,82,0.00,,,0.01,,2013-02-16 17:32:00,
2013-02-16 12:42:00,26.0,21.0,30.09,WSW,244,9.0,15.0,82,0.00,,,0.01,,2013-02-16 17:42:00,
2013-02-16 12:52:00,26.0,22.0,30.09,WSW,252,4.0,16.0,83,0.00,,,0.01,,2013-02-16 17:52:00,
2013-02-16 13:02:00,26.0,21.0,30.08,SW,232,4.0,12.0,82,0.00,,,0.01,,2013-02-16 18:02:00,
2013-02-16 13:11:00,27.0,20.0,30.07,WSW,246,10.0,14.0,75,0.00,,,0.01,,2013-02-16 18:11:00,
2013-02-16 13:21:00,27.0,20.0,30.07,WSW,246,10.0,14.0,75,0.00,,,0.01,,2013-02-16 18:21:00,
2013-02-16 13:33:00,27.0,21.0,30.07,WSW,237,9.0,17.0,78,0.00,,,0.01,,2013-02-16 18:33:00,
2013-02-16 13:42:00,27.0,21.0,30.07,WSW,237,9.0,17.0,78,0.00,,,0.01,,2013-02-16 18:42:00,
2013-02-16 13:52:00,27.0,21.0,30.07,WSW,237,9.0,17.0,78,0.00,,,0.01,,2013-02-16 18:52:00,
2013-02-16 14:02:00,26.0,21.0,30.06,WSW,250,6.0,16.0,82,0.00,,,0.01,,2013-02-16 19:02:00,
2013-02-16 14:11:00,26.0,21.0,30.06,WSW,250,6.0,16.0,82,0.00,,,0.01,,2013-02-16 19:11:00,
2013-02-16 14:22:00,26.0,21.0,30.06,WSW,245,8.0,16.0,81,0.00,,,0.01,,2013-02-16 19:22:00,
2013-02-16 14:32:00,26.0,20.0,30.06,WSW,251,10.0,15.0,77,0.00,,,0.01,,2013-02-16 19:32:00,
2013-02-16 14:42:00,26.0,20.0,30.06,WSW,251,10.0,15.0,77,0.00,,,0.01,,2013-02-16 19:42:00,
2013-02-16 14:52:00,26.0,20.0,30.07,SW,228,8.0,18.0,78,0.00,,,0.01,,2013-02-16 19:52:00,
2013-02-16 15:01:00,26.0,19.0,30.07,SW,234,11.0,19.0,76,0.00,,,0.01,,2013-02-16 20:01:00,
2013-02-16 15:11:00,26.0,19.0,30.07,SW,234,11.0,19.0,76,0.00,,,0.01,,2013-02-16 20:11:00,
2013-02-16 15:21:00,26.0,19.0,30.07,SW,234,11.0,19.0,76,0.00,,,0.01,,2013-02-16 20:21:00,
2013-02-16 15:32:00,25.0,19.0,30.07,SW,235,8.0,15.0,78,0.00,,,0.01,,2013-02-16 20:32:00,
2013-02-16 15:42:00,25.0,19.0,30.07,SW,235,8.0,15.0,78,0.00,,,0.01,,2013-02-16 20:42:00,
2013-02-16 15:52:00,26.0,19.0,30.06,SW,222,7.0,16.0,74,0.00,,,0.01,,2013-02-16 20:52:00,
2013-02-16 16:02:00,26.0,19.0,30.07,West,259,11.0,17.0,74,0.00,,,0.01,,2013-02-16 21:02:00,
2013-02-16 16:11:00,26.0,19.0,30.07,West,259,11.0,17.0,74,0.00,,,0.01,,2013-02-16 21:11:00,
2013-02-16 16:21:00,24.0,18.0,30.07,West,259,9.0,17.0,77,0.00,,,0.01,,2013-02-16 21:21:00,
2013-02-16 16:32:00,24.0,19.0,30.08,West,268,10.0,15.0,80,0.00,,,0.01,,2013-02-16 21:32:00,
2013-02-16 16:42:00,24.0,19.0,30.08,West,268,10.0,15.0,80,0.00,,,0.01,,2013-02-16 21:42:00,
2013-02-16 16:52:00,22.0,17.0,30.09,WSW,245,10.0,15.0,82,0.00,,,0.01,,2013-02-16 21:52:00,
2013-02-16 17:01:00,22.0,18.0,30.09,WSW,245,9.0,15.0,85,0.00,,,0.00,,2013-02-16 22:01:00,
2013-02-16 17:11:00,22.0,18.0,30.09,WSW,245,9.0,15.0,85,0.00,,,0.00,,2013-02-16 22:11:00,
2013-02-16 17:21:00,22.0,19.0,30.09,WSW,250,7.0,16.0,87,0.00,,,0.00,,2013-02-16 22:21:00,
2013-02-16 17:32:00,21.0,18.0,30.09,WSW,241,6.0,11.0,87,0.00,,,0.00,,2013-02-16 22:32:00,
2013-02-16 17:42:00,21.0,18.0,30.09,WSW,241,6.0,11.0,87,0.00,,,0.00,,2013-02-16 22:42:00,
2013-02-16 17:51:00,21.0,17.0,30.09,WSW,256,8.0,14.0,85,0.00,,,0.00,,2013-02-16 22:51:00,
2013-02-16 18:02:00,20.0,15.0,30.10,West,270,10.0,16.0,80,0.00,,,0.00,,2013-02-16 23:02:00,
2013-02-16 18:11:00,20.0,14.0,30.11,West,260,5.0,17.0,78,0.00,,,0.00,,2013-02-16 23:11:00,
2013-02-16 18:21:00,20.0,14.0,30.11,West,260,5.0,17.0,78,0.00,,,0.00,,2013-02-16 23:21:00,
2013-02-16 18:32:00,20.0,15.0,30.11,South,178,4.0,10.0,79,0.00,,,0.00,,2013-02-16 23:32:00,
2013-02-16 18:42:00,20.0,15.0,30.11,South,178,4.0,10.0,79,0.00,,,0.00,,2013-02-16 23:42:00,
2013-02-16 18:52:00,20.0,15.0,30.11,South,178,4.0,10.0,79,0.00,,,0.00,,2013-02-16 23:52:00,
2013-02-16 19:02:00,20.0,14.0,30.12,West,264,10.0,14.0,77,0.00,,,0.00,,2013-02-17 00:02:00,
2013-02-16 19:12:00,20.0,14.0,30.12,West,264,10.0,14.0,77,0.00,,,0.00,,2013-02-17 00:12:00,
2013-02-16 19:22:00,19.0,13.0,30.13,WSW,253,7.0,16.0,78,0.00,,,0.00,,2013-02-17 00:22:00,
2013-02-16 19:32:00,18.0,12.0,30.13,WSW,247,5.0,12.0,77,0.00,,,0.00,,2013-02-17 00:32:00,
2013-02-16 19:42:00,18.0,12.0,30.13,WSW,247,5.0,12.0,77,0.00,,,0.00,,2013-02-17 00:42:00,
2013-02-16 19:52:00,18.0,12.0,30.13,WSW,247,5.0,12.0,77,0.00,,,0.00,,2013-02-17 00:52:00,
2013-02-16 20:01:00,19.0,13.0,30.14,SW,220,4.0,13.0,78,0.00,,,0.00,,2013-02-17 01:01:00,
2013-02-16 20:11:00,19.0,13.0,30.14,SW,220,4.0,13.0,78,0.00,,,0.00,,2013-02-17 01:11:00,
2013-02-16 20:21:00,18.0,13.0,30.14,WSW,238,3.0,12.0,79,0.00,,,0.00,,2013-02-17 01:21:00,
2013-02-16 20:32:00,18.0,10.0,30.14,WSW,245,7.0,14.0,71,0.00,,,0.00,,2013-02-17 01:32:00,
2013-02-16 20:41:00,18.0,10.0,30.14,WSW,245,7.0,14.0,71,0.00,,,0.00,,2013-02-17 01:41:00,
2013-02-16 20:52:00,18.0,10.0,30.15,WSW,237,5.0,12.0,70,0.00,,,0.00,,2013-02-17 01:52:00,
2013-02-16 21:01:00,18.0,9.0,30.14,WSW,252,5.0,11.0,68,0.00,,,0.00,,2013-02-17 02:01:00,
2013-02-16 21:11:00,18.0,9.0,30.14,WSW,252,5.0,11.0,68,0.00,,,0.00,,2013-02-17 02:11:00,
2013-02-16 21:21:00,18.0,9.0,30.14,WSW,252,5.0,11.0,68,0.00,,,0.00,,2013-02-17 02:21:00,
2013-02-16 21:32:00,17.0,9.0,30.15,WSW,240,6.0,11.0,69,0.00,,,0.00,,2013-02-17 02:32:00,
2013-02-16 21:41:00,17.0,9.0,30.15,WSW,240,6.0,11.0,69,0.00,,,0.00,,2013-02-17 02:41:00,
2013-02-16 21:52:00,17.0,9.0,30.15,WSW,258,5.0,11.0,69,0.00,,,0.00,,2013-02-17 02:52:00,
2013-02-16 22:02:00,17.0,9.0,30.15,West,262,5.0,13.0,69,0.00,,,0.00,,2013-02-17 03:02:00,
2013-02-16 22:11:00,17.0,9.0,30.15,West,262,5.0,13.0,69,0.00,,,0.00,,2013-02-17 03:11:00,
2013-02-16 22:21:00,16.0,8.0,30.15,WSW,248,2.0,9.0,70,0.00,,,0.00,,2013-02-17 03:21:00,
2013-02-16 22:32:00,15.0,8.0,30.15,WSW,246,3.0,6.0,73,0.00,,,0.00,,2013-02-17 03:32:00,
2013-02-16 22:42:00,15.0,8.0,30.15,WSW,246,3.0,6.0,73,0.00,,,0.00,,2013-02-17 03:42:00,
2013-02-16 22:51:00,15.0,8.0,30.15,WSW,254,4.0,9.0,74,0.00,,,0.00,,2013-02-17 03:51:00,
2013-02-16 23:01:00,15.0,9.0,30.15,WSW,257,3.0,9.0,77,0.00,,,0.00,,2013-02-17 04:01:00,
2013-02-16 23:11:00,15.0,9.0,30.15,WSW,257,3.0,9.0,77,0.00,,,0.00,,2013-02-17 04:11:00,
2013-02-16 23:21:00,15.0,9.0,30.15,WSW,257,3.0,9.0,77,0.00,,,0.00,,2013-02-17 04:21:00,
2013-02-16 23:32:00,16.0,10.0,30.14,WSW,256,6.0,10.0,76,0.00,,,0.00,,2013-02-17 04:32:00,
2013-02-16 23:41:00,16.0,10.0,30.14,WSW,256,6.0,10.0,76,0.00,,,0.00,,2013-02-17 04:41:00,
2013-02-16 23:52:00,16.0,10.0,30.14,WSW,240,5.0,10.0,76,0.00,,,0.00,,2013-02-17 04:52:00,